This is the latest recevied weather packets stored in our database for station/object SM6KNE. If no packets are shown the sender has not sent any weather packets the latest 10 day(s).
| Time | Temp. | Humidity | Pressure | Rain* | Wind** | Luminosity | Snow |
|---|---|---|---|---|---|---|---|
| 1777697764 | 5.56° C | 79% | 1018.1 hPa | 0 mm | - | - | - |
| 1777696523 | 5° C | 78% | 1018.1 hPa | 0 mm | - | - | - |
| 1777693521 | 5° C | 77% | 1019.1 hPa | 0 mm | - | - | - |
| 1777689959 | 5.56° C | 74% | 1019.1 hPa | - | - | - | - |
| 1777686924 | 5.56° C | 70% | 1020.1 hPa | - | - | - | - |
| 1777682124 | 5° C | 67% | 1021.1 hPa | - | - | - | - |
| 1777679126 | 6.11° C | 64% | 1021.1 hPa | - | - | - | - |
| 1777674919 | 7.78° C | 61% | 1022.1 hPa | - | - | - | - |
| 1777673164 | 7.78° C | 60% | 1022.1 hPa | - | - | - | - |
| 1777670724 | 8.89° C | 56% | 1023.1 hPa | - | - | - | - |
| 1777668943 | 9.44° C | 54% | 1023.1 hPa | - | - | - | - |
| 1777667724 | 10° C | 53% | 1023.1 hPa | - | - | - | - |
| 1777666523 | 10.56° C | 51% | 1023.1 hPa | - | - | - | - |
| 1777664124 | 11.67° C | 49% | 1023.1 hPa | - | - | - | - |
| 1777660523 | 15° C | 40% | 1024.1 hPa | - | - | - | - |
| 1777659920 | 15.56° C | 37% | 1024.1 hPa | - | - | - | - |
| 1777656315 | 18.89° C | 33% | 1024.1 hPa | - | - | - | - |
| 1777655724 | 19.44° C | 32% | 1024.1 hPa | - | - | - | - |
| 1777655123 | 20° C | 32% | 1024.1 hPa | - | - | - | - |
| 1777652723 | 20° C | 30% | 1025.1 hPa | - | - | - | - |
| 1777649123 | 23.89° C | 29% | 1025.1 hPa | - | - | - | - |
| 1777647327 | 22.78° C | 30% | 1026 hPa | - | - | - | - |
| 1777640119 | 24.44° C | 29% | 1027.2 hPa | - | - | - | - |
| 1777639523 | 23.33° C | 29% | 1027.2 hPa | - | - | - | - |
| 1777635944 | 22.78° C | 31% | 1027.2 hPa | - | - | - | - |
* Rain latest 24 hours (hover to see other rain measurements)
** Current wind speed in m/s (hover to see current wind gust speed)